EDDF/FRA METAR and TAF weather

Enter ICAO airport designator
Station Type Date Time Source
EDDF METAR 2021/09/23 22:50 UTC NOAA

EDDF 232250Z 19008KT 9999 FEW030 SCT045 13/10 Q1018 NOSIG


Station Type Date Time Source
EDDF Decoded METAR 2021/09/23 22:50 UTC NOAA

Frankfurt / M-Flughafen, Germany (EDDF) 50-03N 008-36E 113M
Sep 23, 2021 - 06:50 PM EDT / 2021.09.23 2250 UTC
Wind: from the S (190 degrees) at 9 MPH (8 KT):0
Visibility: greater than 7 mile(s):0
Sky conditions: partly cloudy
Temperature: 55 F (13 C)
Dew Point: 50 F (10 C)
Relative Humidity: 81%
Pressure (altimeter): 30.06 in. Hg (1018 hPa)
ob: EDDF 232250Z 19008KT 9999 FEW030 SCT045 13/10 Q1018 NOSIG
cycle: 23

Station Type Date Time Source
EDDF TAF 2021/09/23 18:27 UTC NOAA

TAF TAF EDDF 231700Z 2318/2424 24009KT CAVOK
BECMG 2320/2323 BKN030
BECMG 2414/2417 SCT030
BECMG 2417/2420 20004KT

Example: see airport list